Time;durP1;ratioP1;P1;durP2;ratioP2;P2;SDS_P1;SDS_P2;PMS_P1;PMS_P2;Temp;Humidity;BMP_temperature;BMP_pressure;BME280_temperature;BME280_humidity;BME280_pressure;Samples;Min_cycle;Max_cycle;Signal;HPM_P1;HPM_P2
2022/09/16 00:00:36;;;;;;;0.30;0.10;;;11.90;99.90;;;;;;5037665;28;20166;-70
2022/09/16 00:03:02;;;;;;;2.33;0.17;;;11.90;99.90;;;;;;5042124;28;20060;-70
2022/09/16 00:05:28;;;;;;;0.10;0.10;;;11.90;99.90;;;;;;5021886;28;20094;-70
2022/09/16 00:07:54;;;;;;;1.83;0.55;;;11.90;99.90;;;;;;5040808;28;20599;-70
2022/09/16 00:10:21;;;;;;;2.65;0.20;;;11.90;99.90;;;;;;5041859;28;20183;-70
2022/09/16 00:12:48;;;;;;;0.15;0.10;;;11.90;99.90;;;;;;5024218;28;20048;-70
2022/09/16 00:15:14;;;;;;;0.20;0.13;;;11.80;99.90;;;;;;5021656;28;20102;-70
2022/09/16 00:17:39;;;;;;;0.47;0.20;;;11.90;99.90;;;;;;5038213;28;20037;-70
2022/09/16 00:20:06;;;;;;;0.30;0.10;;;11.90;99.90;;;;;;5041123;28;20437;-70
2022/09/16 00:22:32;;;;;;;0.50;0.22;;;11.90;99.90;;;;;;5020732;28;20036;-70
2022/09/16 00:24:58;;;;;;;0.08;0.08;;;11.90;99.90;;;;;;5042447;28;20041;-70
2022/09/16 00:27:23;;;;;;;0.35;0.10;;;12.00;99.90;;;;;;5042049;28;20024;-70
2022/09/16 00:29:49;;;;;;;0.15;0.10;;;12.00;99.90;;;;;;5041501;28;20501;-70
2022/09/16 00:32:15;;;;;;;0.43;0.10;;;12.00;99.90;;;;;;5040572;28;22192;-70
2022/09/16 00:34:40;;;;;;;0.85;0.57;;;12.10;99.90;;;;;;5040846;28;20528;-70
2022/09/16 00:37:07;;;;;;;0.63;0.20;;;12.10;99.90;;;;;;5040599;28;20037;-70
2022/09/16 00:39:34;;;;;;;0.65;0.15;;;12.00;99.90;;;;;;5023836;28;20124;-70
2022/09/16 00:42:00;;;;;;;0.10;0.10;;;12.00;99.90;;;;;;5039570;28;20037;-70
2022/09/16 00:44:51;;;;;;;1.25;0.10;;;12.10;99.90;;;;;;5041821;28;20054;-70
2022/09/16 00:47:42;;;;;;;0.50;0.22;;;12.10;99.90;;;;;;5021846;28;20499;-70
2022/09/16 00:50:35;;;;;;;0.82;0.17;;;12.10;99.90;;;;;;5029340;28;20072;-70
2022/09/16 00:53:01;;;;;;;0.57;0.05;;;12.10;99.90;;;;;;5039396;28;20044;-70
2022/09/16 00:55:31;;;;;;;1.45;0.15;;;12.10;99.90;;;;;;5041133;28;20040;-70
2022/09/16 00:58:03;;;;;;;0.45;0.17;;;12.10;99.90;;;;;;5040157;28;20051;-70
2022/09/16 01:00:28;;;;;;;0.30;0.17;;;12.10;99.90;;;;;;5038422;28;20052;-70
2022/09/16 01:02:54;;;;;;;0.82;0.20;;;12.10;99.90;;;;;;5039566;28;20048;-70
2022/09/16 01:05:24;;;;;;;2.30;0.25;;;12.10;99.90;;;;;;5039518;28;20035;-70
2022/09/16 01:07:52;;;;;;;0.10;0.10;;;12.10;99.90;;;;;;5036896;28;20056;-70
2022/09/16 01:10:21;;;;;;;0.30;0.20;;;12.10;99.90;;;;;;5040231;28;20060;-70
2022/09/16 01:12:58;;;;;;;0.70;0.30;;;12.10;99.90;;;;;;5041404;28;20044;-70
2022/09/16 01:15:48;;;;;;;0.20;0.20;;;12.10;99.90;;;;;;5039286;28;20051;-70
2022/09/16 01:18:25;;;;;;;3.53;0.38;;;12.00;99.90;;;;;;5030981;28;20049;-70
2022/09/16 01:21:08;;;;;;;3.33;0.38;;;12.10;99.90;;;;;;5040389;28;20127;-70
2022/09/16 01:23:55;;;;;;;0.30;0.10;;;12.00;99.90;;;;;;5038684;28;20621;-70
2022/09/16 01:26:37;;;;;;;0.10;0.00;;;12.00;99.90;;;;;;5004941;28;20068;-70
2022/09/16 01:29:25;;;;;;;0.00;0.00;;;12.00;99.90;;;;;;5020662;28;20119;-70
2022/09/16 01:32:17;;;;;;;0.65;0.20;;;12.00;99.90;;;;;;5040897;28;20033;-70
2022/09/16 01:35:04;;;;;;;0.15;0.15;;;12.00;99.90;;;;;;5021817;28;20235;-70
2022/09/16 01:38:01;;;;;;;3.15;0.30;;;12.00;99.90;;;;;;5037804;28;20044;-70
2022/09/16 01:40:31;;;;;;;0.10;0.10;;;12.00;99.90;;;;;;5037811;28;20033;-70
2022/09/16 01:43:10;;;;;;;1.38;0.40;;;12.00;99.90;;;;;;5023768;28;20509;-70
2022/09/16 01:45:40;;;;;;;1.13;0.25;;;11.90;99.90;;;;;;5011008;28;20123;-70
2022/09/16 01:48:23;;;;;;;0.45;0.15;;;11.90;99.90;;;;;;5021545;28;20051;-70
2022/09/16 01:51:16;;;;;;;0.40;0.20;;;11.90;99.90;;;;;;5038672;28;20048;-70
2022/09/16 01:54:06;;;;;;;0.10;0.10;;;11.90;99.90;;;;;;5007719;28;20106;-70
2022/09/16 01:56:45;;;;;;;0.40;0.22;;;11.90;99.90;;;;;;5039402;28;20664;-70
2022/09/16 01:59:19;;;;;;;1.05;0.20;;;11.90;99.90;;;;;;5003022;28;20033;-70
2022/09/16 02:01:53;;;;;;;0.73;0.30;;;11.90;99.90;;;;;;5038846;28;20102;-70
2022/09/16 02:04:27;;;;;;;2.50;0.20;;;11.90;99.90;;;;;;5039261;28;20120;-70
2022/09/16 02:06:55;;;;;;;0.32;0.20;;;11.90;99.90;;;;;;5025290;28;20041;-70
2022/09/16 02:09:30;;;;;;;0.20;0.10;;;11.80;99.90;;;;;;5043493;28;20049;-70
2022/09/16 02:12:04;;;;;;;0.10;0.10;;;11.80;99.90;;;;;;5025261;28;20072;-70
2022/09/16 02:14:34;;;;;;;0.10;0.05;;;11.80;99.90;;;;;;5044838;28;20033;-70
2022/09/16 02:17:12;;;;;;;3.10;0.30;;;11.80;99.90;;;;;;5043887;28;20095;-70
2022/09/16 02:19:55;;;;;;;0.40;0.20;;;11.80;99.90;;;;;;5040591;28;20056;-70
2022/09/16 02:22:33;;;;;;;0.00;0.00;;;11.80;99.90;;;;;;5008203;28;20162;-70
2022/09/16 02:25:01;;;;;;;0.65;0.20;;;11.80;99.90;;;;;;5042995;28;20043;-70
2022/09/16 02:27:29;;;;;;;0.52;0.40;;;11.80;99.90;;;;;;5044018;28;20044;-70
2022/09/16 02:30:04;;;;;;;0.22;0.10;;;11.70;99.90;;;;;;5044443;28;20037;-70
2022/09/16 02:32:32;;;;;;;0.28;0.20;;;11.80;99.90;;;;;;5043257;28;21034;-70
2022/09/16 02:35:00;;;;;;;1.40;0.10;;;11.80;99.90;;;;;;5038791;28;20091;-70
2022/09/16 02:37:31;;;;;;;0.20;0.20;;;11.80;99.90;;;;;;5041578;28;20041;-70
2022/09/16 02:40:03;;;;;;;0.20;0.20;;;11.80;99.90;;;;;;5042224;28;20059;-70
2022/09/16 02:42:30;;;;;;;0.90;0.30;;;11.80;99.90;;;;;;5043033;28;20120;-70
2022/09/16 02:44:56;;;;;;;2.60;0.30;;;11.80;99.90;;;;;;5043452;28;20116;-70
2022/09/16 02:47:44;;;;;;;0.03;0.03;;;11.80;99.90;;;;;;5008142;28;20091;-70
2022/09/16 02:50:18;;;;;;;0.30;0.10;;;11.70;99.90;;;;;;5038588;28;20096;-70
2022/09/16 02:52:59;;;;;;;0.10;0.10;;;11.80;99.90;;;;;;5042085;28;20048;-70
2022/09/16 02:55:54;;;;;;;0.05;0.00;;;11.70;99.90;;;;;;5042044;28;20251;-70
2022/09/16 02:58:20;;;;;;;0.55;0.10;;;11.70;99.90;;;;;;5042086;28;20055;-70
2022/09/16 03:00:48;;;;;;;3.17;1.05;;;11.80;99.90;;;;;;5042621;28;20592;-70
2022/09/16 03:03:14;;;;;;;0.55;0.20;;;11.70;99.90;;;;;;5041988;28;20037;-70
2022/09/16 03:06:05;;;;;;;0.38;0.20;;;11.70;99.90;;;;;;5023890;28;20029;-70
2022/09/16 03:08:31;;;;;;;0.40;0.25;;;11.70;99.90;;;;;;5042096;28;20509;-70
2022/09/16 03:11:24;;;;;;;0.32;0.20;;;11.80;99.90;;;;;;5041282;28;20056;-70
2022/09/16 03:14:16;;;;;;;1.40;0.28;;;11.70;99.90;;;;;;5032449;28;20441;-70
2022/09/16 03:17:03;;;;;;;0.10;0.10;;;11.70;99.90;;;;;;5024447;28;20044;-70
2022/09/16 03:19:41;;;;;;;1.15;0.30;;;11.80;99.90;;;;;;5040153;28;20036;-70
2022/09/16 03:22:27;;;;;;;0.30;0.10;;;11.80;99.90;;;;;;5041186;28;20047;-70
2022/09/16 03:25:32;;;;;;;0.75;0.15;;;11.80;99.90;;;;;;5022934;28;20071;-70
2022/09/16 03:28:24;;;;;;;0.00;0.00;;;11.80;99.90;;;;;;5024113;28;20056;-70
2022/09/16 03:31:03;;;;;;;2.50;0.30;;;11.70;99.90;;;;;;5040430;28;21002;-70
2022/09/16 03:33:49;;;;;;;0.20;0.20;;;11.70;99.90;;;;;;5040287;28;20076;-70
2022/09/16 03:36:19;;;;;;;0.03;0.00;;;11.70;99.90;;;;;;5039232;28;20045;-70
2022/09/16 03:38:45;;;;;;;2.45;0.40;;;11.70;99.90;;;;;;5040843;28;20040;-70
2022/09/16 03:41:13;;;;;;;0.30;0.20;;;11.80;99.90;;;;;;5041318;28;20041;-70
2022/09/16 03:43:39;;;;;;;0.45;0.13;;;11.80;99.90;;;;;;5042940;28;20183;-70
2022/09/16 03:46:13;;;;;;;0.63;0.25;;;11.80;99.90;;;;;;5037721;28;20033;-70
2022/09/16 03:48:39;;;;;;;0.00;0.00;;;11.70;99.90;;;;;;5042254;28;20028;-70
2022/09/16 03:51:05;;;;;;;0.52;0.20;;;11.70;99.90;;;;;;5039699;28;20810;-71
2022/09/16 03:53:30;;;;;;;0.10;0.10;;;11.70;99.90;;;;;;5023819;28;20083;-70
2022/09/16 03:55:56;;;;;;;5.15;0.30;;;11.60;99.90;;;;;;5041653;28;20076;-70
2022/09/16 03:58:22;;;;;;;3.00;0.22;;;11.60;99.90;;;;;;5023375;28;20033;-70
2022/09/16 04:00:49;;;;;;;0.32;0.25;;;11.60;99.90;;;;;;5041280;28;20037;-70
2022/09/16 04:03:15;;;;;;;0.30;0.20;;;11.60;99.90;;;;;;5019241;28;20114;-70
2022/09/16 04:05:41;;;;;;;0.43;0.10;;;11.60;99.90;;;;;;5040962;28;20029;-70
2022/09/16 04:08:06;;;;;;;2.22;0.38;;;11.50;99.90;;;;;;5041469;28;20102;-70
2022/09/16 04:10:33;;;;;;;0.32;0.10;;;11.50;99.90;;;;;;5023481;28;20045;-70
2022/09/16 04:12:59;;;;;;;0.20;0.10;;;11.50;99.90;;;;;;5042097;28;20041;-70
2022/09/16 04:15:25;;;;;;;0.00;0.00;;;11.50;99.90;;;;;;5040206;28;20573;-70
2022/09/16 04:17:51;;;;;;;0.25;0.17;;;11.50;99.90;;;;;;5040747;28;20729;-70
2022/09/16 04:20:16;;;;;;;1.02;0.20;;;11.40;99.90;;;;;;5039865;28;20041;-70
2022/09/16 04:22:42;;;;;;;0.75;0.40;;;11.40;99.90;;;;;;5041254;28;20033;-70
2022/09/16 04:25:08;;;;;;;0.88;0.20;;;11.50;99.90;;;;;;5042632;28;20585;-70
2022/09/16 04:27:34;;;;;;;0.38;0.22;;;11.50;99.90;;;;;;5040096;28;20376;-71
2022/09/16 04:30:00;;;;;;;1.10;0.25;;;11.40;99.90;;;;;;5039083;28;20051;-70
2022/09/16 04:32:25;;;;;;;1.13;0.28;;;11.40;99.90;;;;;;5022913;28;20045;-70
2022/09/16 04:34:51;;;;;;;1.25;0.20;;;11.40;99.90;;;;;;5040811;28;20376;-70
2022/09/16 04:37:17;;;;;;;0.63;0.52;;;11.40;99.90;;;;;;5041131;28;20106;-71
2022/09/16 04:39:42;;;;;;;0.10;0.10;;;11.40;99.90;;;;;;5040195;28;20044;-71
2022/09/16 04:42:11;;;;;;;3.30;0.30;;;11.40;99.90;;;;;;5040134;28;20036;-70
2022/09/16 04:44:37;;;;;;;0.40;0.22;;;11.30;99.90;;;;;;5006791;28;20446;-71
2022/09/16 04:47:02;;;;;;;0.35;0.20;;;11.30;99.90;;;;;;5039991;28;20526;-70
2022/09/16 04:49:28;;;;;;;0.80;0.43;;;11.30;99.90;;;;;;5042166;28;20038;-70
2022/09/16 04:51:54;;;;;;;0.00;0.00;;;11.30;99.90;;;;;;5039667;28;20062;-70
2022/09/16 04:54:19;;;;;;;2.92;0.32;;;11.30;99.90;;;;;;5041453;28;20064;-70
2022/09/16 04:56:45;;;;;;;0.22;0.20;;;11.30;99.90;;;;;;5039858;28;20036;-70
2022/09/16 04:59:11;;;;;;;0.73;0.20;;;11.30;99.90;;;;;;5020247;28;20064;-71
2022/09/16 05:01:38;;;;;;;1.80;0.20;;;11.20;99.90;;;;;;5038346;28;20120;-70
2022/09/16 05:04:06;;;;;;;0.10;0.10;;;11.20;99.90;;;;;;5039014;28;20508;-70
2022/09/16 05:06:34;;;;;;;0.13;0.05;;;11.30;99.90;;;;;;5041017;28;20376;-70
2022/09/16 05:09:00;;;;;;;0.35;0.28;;;11.30;99.90;;;;;;5021852;28;20052;-70
2022/09/16 05:11:29;;;;;;;1.55;0.20;;;11.30;99.90;;;;;;5039959;28;20510;-71
2022/09/16 05:13:57;;;;;;;0.75;0.20;;;11.20;99.90;;;;;;5040963;28;20044;-70
2022/09/16 05:16:23;;;;;;;2.17;0.40;;;11.10;99.90;;;;;;5005594;28;20098;-70
2022/09/16 05:18:52;;;;;;;0.00;0.00;;;11.10;99.90;;;;;;5039413;28;20049;-70
2022/09/16 05:21:19;;;;;;;0.80;0.25;;;11.00;99.90;;;;;;5021521;28;20570;-70
2022/09/16 05:23:45;;;;;;;1.45;0.32;;;11.00;99.90;;;;;;5040620;28;20593;-70
2022/09/16 05:26:13;;;;;;;2.20;0.20;;;11.00;99.90;;;;;;5039608;28;20413;-70
2022/09/16 05:28:39;;;;;;;0.10;0.05;;;10.90;99.90;;;;;;5037648;28;20068;-71
2022/09/16 05:31:07;;;;;;;1.10;0.22;;;11.00;99.90;;;;;;5039450;28;20124;-70
2022/09/16 05:33:33;;;;;;;0.00;0.00;;;11.00;99.90;;;;;;5040488;28;20041;-70
2022/09/16 05:36:11;;;;;;;0.98;0.20;;;11.00;99.90;;;;;;5040720;28;20063;-70
2022/09/16 05:38:36;;;;;;;1.25;0.35;;;10.90;99.90;;;;;;5041825;28;20040;-70
2022/09/16 05:41:04;;;;;;;1.85;0.45;;;10.90;99.90;;;;;;5042791;28;20049;-70
2022/09/16 05:43:30;;;;;;;6.20;0.40;;;10.90;99.90;;;;;;5044544;28;20033;-70
2022/09/16 05:45:56;;;;;;;2.63;0.20;;;10.90;99.90;;;;;;5042421;28;20128;-70
2022/09/16 05:48:22;;;;;;;6.80;0.77;;;11.00;99.90;;;;;;5044492;28;20367;-70
2022/09/16 05:50:52;;;;;;;1.55;0.50;;;11.00;99.90;;;;;;5042988;28;20040;-70
2022/09/16 05:53:18;;;;;;;0.40;0.20;;;11.00;99.90;;;;;;5026399;28;20072;-70
2022/09/16 05:55:57;;;;;;;1.95;0.43;;;11.10;99.90;;;;;;5042602;28;20126;-70
2022/09/16 05:58:24;;;;;;;0.30;0.10;;;11.10;99.90;;;;;;5044081;28;20036;-70
2022/09/16 06:00:50;;;;;;;0.95;0.40;;;11.20;99.90;;;;;;5040835;28;20048;-70
2022/09/16 06:03:16;;;;;;;1.20;0.35;;;11.20;99.90;;;;;;5025409;28;20033;-70
2022/09/16 06:05:41;;;;;;;2.22;0.20;;;11.20;99.90;;;;;;5024024;28;20069;-71
2022/09/16 06:08:07;;;;;;;2.15;0.40;;;11.20;99.90;;;;;;5040807;28;20160;-70
2022/09/16 06:10:37;;;;;;;1.00;0.20;;;11.20;99.90;;;;;;5045188;28;20039;-70
2022/09/16 06:13:03;;;;;;;0.10;0.10;;;11.40;99.90;;;;;;5044826;28;20041;-70
2022/09/16 06:15:28;;;;;;;1.65;0.20;;;11.30;99.90;;;;;;5045983;28;20086;-71
2022/09/16 06:17:54;;;;;;;0.30;0.13;;;11.30;99.90;;;;;;5045139;28;20490;-70
2022/09/16 06:20:20;;;;;;;0.10;0.10;;;11.30;99.90;;;;;;5041922;28;20380;-71
2022/09/16 06:22:45;;;;;;;0.20;0.10;;;11.30;99.90;;;;;;5025680;28;20076;-70
2022/09/16 06:25:11;;;;;;;3.03;0.28;;;11.30;99.90;;;;;;5045061;28;20545;-70
2022/09/16 06:27:36;;;;;;;2.97;0.20;;;11.30;99.90;;;;;;5028657;28;20136;-70
2022/09/16 06:30:03;;;;;;;3.20;0.40;;;11.30;99.90;;;;;;5041939;28;20040;-70
2022/09/16 06:32:32;;;;;;;0.08;0.03;;;11.30;99.90;;;;;;5025460;28;20044;-70
2022/09/16 06:34:57;;;;;;;0.52;0.20;;;11.30;99.90;;;;;;5010727;28;20067;-70
2022/09/16 06:37:24;;;;;;;1.50;0.30;;;11.30;99.90;;;;;;5039225;28;20037;-71
2022/09/16 06:39:50;;;;;;;1.60;0.32;;;11.30;99.90;;;;;;5006775;28;20064;-70
2022/09/16 06:42:16;;;;;;;0.47;0.20;;;11.30;99.90;;;;;;5038657;28;20128;-71
2022/09/16 06:44:41;;;;;;;0.57;0.22;;;11.30;99.90;;;;;;5040104;28;20028;-71
2022/09/16 06:47:07;;;;;;;0.30;0.10;;;11.30;99.90;;;;;;5022632;28;20178;-71
2022/09/16 06:49:32;;;;;;;2.50;0.35;;;11.40;99.90;;;;;;5023630;28;20116;-71
2022/09/16 06:51:58;;;;;;;1.02;0.30;;;11.40;99.90;;;;;;5042544;28;20294;-71
2022/09/16 06:54:23;;;;;;;2.83;0.17;;;11.40;99.90;;;;;;5042361;28;20057;-71
2022/09/16 06:56:49;;;;;;;0.82;0.10;;;11.40;99.90;;;;;;5041612;28;20043;-71
2022/09/16 06:59:15;;;;;;;0.17;0.10;;;11.50;99.90;;;;;;5041559;28;20041;-70
2022/09/16 07:01:40;;;;;;;0.40;0.40;;;11.50;99.90;;;;;;5042633;28;20036;-71
2022/09/16 07:04:12;;;;;;;0.93;0.25;;;11.50;99.90;;;;;;5041107;28;20537;-70
2022/09/16 07:06:38;;;;;;;0.68;0.30;;;11.60;99.90;;;;;;5041042;28;20091;-70
2022/09/16 07:09:05;;;;;;;1.00;0.28;;;11.70;99.90;;;;;;5033036;28;20048;-71
2022/09/16 07:11:31;;;;;;;3.30;0.20;;;11.70;99.90;;;;;;5036489;28;20542;-70
2022/09/16 07:13:59;;;;;;;0.50;0.17;;;11.80;99.90;;;;;;5041818;28;20040;-70
2022/09/16 07:16:25;;;;;;;3.10;0.30;;;11.80;99.90;;;;;;5041651;28;20049;-70
2022/09/16 07:18:56;;;;;;;4.18;0.38;;;11.90;99.90;;;;;;5038141;28;20041;-70
2022/09/16 07:21:24;;;;;;;3.10;0.80;;;12.00;99.90;;;;;;5039561;28;20664;-70
2022/09/16 07:23:53;;;;;;;0.17;0.13;;;12.00;99.90;;;;;;5021726;28;20744;-70
2022/09/16 07:26:21;;;;;;;7.05;0.77;;;12.10;99.90;;;;;;5039354;28;20040;-71
2022/09/16 07:28:48;;;;;;;6.78;0.40;;;12.20;99.90;;;;;;5024042;28;20061;-70
2022/09/16 07:31:20;;;;;;;0.85;0.20;;;12.30;99.90;;;;;;5038312;28;20454;-71
2022/09/16 07:33:48;;;;;;;3.53;0.47;;;12.30;99.90;;;;;;5037882;28;20115;-71
2022/09/16 07:36:18;;;;;;;2.97;0.35;;;12.30;99.90;;;;;;5040148;28;20079;-71
2022/09/16 07:38:43;;;;;;;2.22;0.17;;;12.30;99.90;;;;;;5019159;28;20033;-71
2022/09/16 07:41:17;;;;;;;0.95;0.20;;;12.30;99.90;;;;;;5036554;28;20033;-71
2022/09/16 07:43:43;;;;;;;0.93;0.20;;;12.30;99.90;;;;;;5035894;28;20048;-71
2022/09/16 07:46:11;;;;;;;2.17;0.20;;;12.40;99.90;;;;;;5021751;28;20056;-71
2022/09/16 07:48:37;;;;;;;1.85;0.47;;;12.40;99.90;;;;;;5021002;28;20028;-71
2022/09/16 07:51:06;;;;;;;1.02;0.30;;;12.50;99.90;;;;;;5037382;28;20056;-71
2022/09/16 07:53:33;;;;;;;0.20;0.05;;;12.40;99.90;;;;;;5007144;28;20052;-71
2022/09/16 07:56:03;;;;;;;2.40;0.60;;;12.50;99.90;;;;;;5021372;28;20044;-70
2022/09/16 07:58:28;;;;;;;2.28;0.28;;;12.60;99.90;;;;;;5041056;28;20523;-70
2022/09/16 08:00:54;;;;;;;1.67;0.30;;;12.60;99.90;;;;;;5037805;28;20075;-70
2022/09/16 08:03:19;;;;;;;2.47;0.30;;;12.70;99.90;;;;;;5019906;28;20380;-70
2022/09/16 08:05:45;;;;;;;1.38;0.22;;;12.80;99.90;;;;;;5021181;28;20083;-75
2022/09/16 08:08:11;;;;;;;1.95;0.35;;;12.90;99.90;;;;;;5038286;28;20494;-70
2022/09/16 08:10:36;;;;;;;1.80;0.30;;;12.90;99.90;;;;;;5036706;28;20807;-71
2022/09/16 08:13:03;;;;;;;0.10;0.10;;;13.00;99.90;;;;;;5019357;28;20091;-70
2022/09/16 08:15:29;;;;;;;2.92;0.20;;;13.10;99.90;;;;;;5038942;28;20383;-71
2022/09/16 08:17:55;;;;;;;2.03;0.30;;;13.10;99.90;;;;;;5039392;28;20041;-70
2022/09/16 08:20:20;;;;;;;5.68;0.43;;;13.10;99.90;;;;;;5034198;28;20343;-70
2022/09/16 08:22:46;;;;;;;4.95;0.40;;;13.20;99.90;;;;;;5041864;28;20207;-70
2022/09/16 08:25:12;;;;;;;0.75;0.40;;;13.20;99.90;;;;;;5025480;28;20036;-70
2022/09/16 08:27:38;;;;;;;3.13;0.35;;;13.20;99.90;;;;;;5020880;28;20102;-70
2022/09/16 08:30:04;;;;;;;0.90;0.25;;;13.30;99.90;;;;;;5024089;28;20041;-70
2022/09/16 08:32:30;;;;;;;2.47;0.32;;;13.30;99.90;;;;;;5040257;28;20059;-70
2022/09/16 08:34:55;;;;;;;5.65;0.55;;;13.40;99.90;;;;;;5019952;28;20048;-70
2022/09/16 08:37:22;;;;;;;0.68;0.20;;;13.50;99.90;;;;;;5039384;28;20041;-71
2022/09/16 08:39:47;;;;;;;3.03;0.32;;;13.60;99.90;;;;;;5042095;28;20037;-71
2022/09/16 08:42:36;;;;;;;1.88;0.43;;;13.70;99.90;;;;;;5036450;28;20047;-70
2022/09/16 08:45:24;;;;;;;2.90;0.30;;;13.70;99.90;;;;;;5016610;28;20486;-70
2022/09/16 08:48:01;;;;;;;1.25;0.30;;;13.70;99.90;;;;;;5042086;28;20545;-70
2022/09/16 08:50:32;;;;;;;0.40;0.10;;;13.80;99.90;;;;;;5020868;28;20072;-70
2022/09/16 08:53:01;;;;;;;3.17;0.50;;;13.80;99.90;;;;;;5034045;28;20032;-70
2022/09/16 08:55:32;;;;;;;1.95;0.20;;;13.80;99.90;;;;;;5031237;28;20045;-72
2022/09/16 08:58:06;;;;;;;3.97;0.25;;;13.80;99.90;;;;;;5014819;28;20048;-71
2022/09/16 09:00:33;;;;;;;0.63;0.30;;;13.80;99.90;;;;;;5017194;28;20070;-71
2022/09/16 09:03:36;;;;;;;1.35;0.20;;;13.80;99.90;;;;;;5033902;28;20040;-70
2022/09/16 09:06:12;;;;;;;1.35;0.40;;;13.80;99.90;;;;;;5030269;28;20120;-70
2022/09/16 09:09:07;;;;;;;0.30;0.17;;;13.80;99.90;;;;;;5013082;28;20175;-70
2022/09/16 09:11:54;;;;;;;3.20;0.25;;;13.80;99.90;;;;;;5032544;28;20044;-69
2022/09/16 09:14:53;;;;;;;1.92;0.55;;;13.90;99.90;;;;;;5034242;28;20089;-69
2022/09/16 09:17:46;;;;;;;2.60;0.20;;;13.90;99.90;;;;;;5034490;28;20466;-70
2022/09/16 09:20:35;;;;;;;1.25;0.20;;;14.00;99.90;;;;;;5016269;28;20044;-70
2022/09/16 09:23:37;;;;;;;6.32;0.50;;;14.00;99.90;;;;;;5032734;28;20080;-70
2022/09/16 09:26:12;;;;;;;0.32;0.10;;;14.10;99.90;;;;;;4999427;28;20755;-71
2022/09/16 09:29:07;;;;;;;0.85;0.20;;;14.10;99.90;;;;;;5016120;28;20048;-70
2022/09/16 09:31:40;;;;;;;1.98;0.30;;;14.20;99.90;;;;;;5020856;28;20060;-70
2022/09/16 09:34:36;;;;;;;2.08;0.50;;;14.20;99.90;;;;;;5038992;28;20040;-70
2022/09/16 09:37:19;;;;;;;1.25;0.32;;;14.30;99.90;;;;;;5037702;28;20045;-71
2022/09/16 09:40:08;;;;;;;1.48;0.10;;;14.30;99.90;;;;;;5035708;28;20045;-70
2022/09/16 09:42:40;;;;;;;2.22;0.45;;;14.30;99.90;;;;;;5036666;28;20796;-71
2022/09/16 09:45:27;;;;;;;2.30;0.20;;;14.40;99.90;;;;;;5031641;28;20494;-70
2022/09/16 09:48:16;;;;;;;1.85;0.22;;;14.40;99.90;;;;;;4995729;28;20534;-70
2022/09/16 09:50:45;;;;;;;3.17;0.43;;;14.50;99.90;;;;;;5034104;28;20568;-70
2022/09/16 09:53:10;;;;;;;5.82;0.30;;;14.50;99.90;;;;;;5036781;28;20660;-70
2022/09/16 09:55:38;;;;;;;0.38;0.10;;;14.60;99.90;;;;;;5037169;28;20033;-70
2022/09/16 09:58:25;;;;;;;2.83;0.40;;;14.60;99.90;;;;;;5017214;28;20037;-71
2022/09/16 10:00:54;;;;;;;0.82;0.20;;;14.50;99.10;;;;;;5037833;28;20036;-70
2022/09/16 10:03:20;;;;;;;1.20;0.30;;;14.50;99.90;;;;;;5034644;28;20041;-70
2022/09/16 10:05:46;;;;;;;0.68;0.10;;;14.50;99.90;;;;;;5036726;28;20048;-69
2022/09/16 10:08:20;;;;;;;2.83;0.35;;;14.60;99.70;;;;;;5036325;28;20057;-69
2022/09/16 10:10:55;;;;;;;1.13;0.20;;;14.70;99.50;;;;;;5034814;28;20086;-70
2022/09/16 10:13:22;;;;;;;1.55;0.30;;;14.70;99.60;;;;;;5042398;28;20033;-71
2022/09/16 10:15:52;;;;;;;1.10;0.13;;;14.80;99.80;;;;;;5039986;28;20028;-70
2022/09/16 10:18:23;;;;;;;1.30;0.10;;;14.80;99.40;;;;;;5039444;28;20041;-70
2022/09/16 10:21:09;;;;;;;3.05;0.15;;;14.80;97.40;;;;;;5036152;28;20041;-70
2022/09/16 10:23:35;;;;;;;1.05;0.20;;;14.90;94.80;;;;;;5018851;28;20064;-70
2022/09/16 10:26:05;;;;;;;1.58;0.28;;;14.90;98.80;;;;;;5037157;28;20541;-70
2022/09/16 10:28:31;;;;;;;3.42;0.52;;;14.90;98.40;;;;;;5041376;28;20042;-70
2022/09/16 10:30:58;;;;;;;3.13;0.35;;;14.90;98.90;;;;;;5041587;28;20479;-70
2022/09/16 10:33:25;;;;;;;4.63;0.45;;;15.10;98.80;;;;;;5038485;28;20049;-71
2022/09/16 10:35:57;;;;;;;2.33;0.35;;;15.10;99.30;;;;;;5039196;28;20109;-70
2022/09/16 10:38:26;;;;;;;0.75;0.30;;;15.20;98.90;;;;;;5040700;28;20045;-71
2022/09/16 10:41:00;;;;;;;5.97;0.52;;;15.30;98.90;;;;;;5020810;28;20037;-70
2022/09/16 10:43:28;;;;;;;1.00;0.30;;;15.30;98.80;;;;;;5036287;28;20025;-70
2022/09/16 10:45:54;;;;;;;0.85;0.30;;;15.40;99.00;;;;;;5036396;28;20117;-70
2022/09/16 10:48:25;;;;;;;1.67;0.28;;;15.40;98.60;;;;;;5038489;28;20028;-70
2022/09/16 10:50:56;;;;;;;1.20;0.30;;;15.40;98.20;;;;;;5041407;28;20033;-71
2022/09/16 10:53:29;;;;;;;0.10;0.10;;;15.40;99.30;;;;;;5039095;28;20376;-70
2022/09/16 10:56:01;;;;;;;1.95;0.30;;;15.50;98.50;;;;;;5022812;28;20392;-71
2022/09/16 10:58:27;;;;;;;2.10;0.10;;;15.50;96.70;;;;;;5038523;28;20136;-70
2022/09/16 11:01:33;;;;;;;1.23;0.30;;;15.60;96.80;;;;;;5038427;28;20044;-70
2022/09/16 11:03:59;;;;;;;0.60;0.13;;;15.60;93.90;;;;;;5039129;28;20052;-71
2022/09/16 11:06:43;;;;;;;1.30;0.30;;;15.40;97.40;;;;;;5037167;28;20390;-70
2022/09/16 11:09:11;;;;;;;3.13;0.20;;;15.30;95.20;;;;;;5019284;28;20057;-70
2022/09/16 11:12:06;;;;;;;0.32;0.10;;;15.30;97.10;;;;;;5040611;28;20049;-70
2022/09/16 11:14:43;;;;;;;0.52;0.20;;;15.30;94.70;;;;;;5027380;28;20525;-69
2022/09/16 11:17:21;;;;;;;1.38;0.30;;;15.30;94.60;;;;;;5038264;28;21317;-70
2022/09/16 11:20:11;;;;;;;1.00;0.32;;;15.10;94.30;;;;;;5039658;28;20263;-70
2022/09/16 11:22:48;;;;;;;0.13;0.05;;;15.10;95.90;;;;;;5040376;28;20069;-72
2022/09/16 11:25:28;;;;;;;4.32;0.13;;;15.20;95.90;;;;;;5041835;28;20041;-71
2022/09/16 11:28:15;;;;;;;1.25;0.40;;;15.20;93.30;;;;;;5038787;28;20175;-72
2022/09/16 11:31:26;;;;;;;1.70;0.40;;;15.10;92.30;;;;;;5035614;28;20041;-70
2022/09/16 11:34:09;;;;;;;1.10;0.13;;;15.10;93.00;;;;;;5035443;28;20437;-70
2022/09/16 11:37:01;;;;;;;1.55;0.30;;;15.10;95.10;;;;;;5036599;28;20029;-71
2022/09/16 11:39:45;;;;;;;1.63;0.57;;;15.10;92.80;;;;;;5031424;28;20044;-71
2022/09/16 11:42:34;;;;;;;2.30;0.15;;;15.20;95.60;;;;;;5035802;28;20355;-71
2022/09/16 11:45:23;;;;;;;0.47;0.20;;;15.30;92.40;;;;;;5039121;28;20040;-72
2022/09/16 11:47:51;;;;;;;2.17;0.30;;;15.50;92.20;;;;;;5035977;28;20747;-71
2022/09/16 11:50:21;;;;;;;1.48;0.30;;;15.60;94.30;;;;;;5036154;28;20541;-71
2022/09/16 11:53:28;;;;;;;1.65;0.50;;;15.70;94.10;;;;;;5038005;28;20037;-71
2022/09/16 11:56:05;;;;;;;0.45;0.10;;;15.70;91.30;;;;;;5038405;28;20037;-71
2022/09/16 11:59:02;;;;;;;0.77;0.22;;;15.70;92.20;;;;;;5022358;28;20132;-70
2022/09/16 12:01:34;;;;;;;1.25;0.30;;;15.70;93.00;;;;;;5019476;28;20060;-71
2022/09/16 12:04:22;;;;;;;0.70;0.25;;;15.60;93.80;;;;;;5035932;28;20036;-70
2022/09/16 12:07:10;;;;;;;0.47;0.10;;;15.60;94.20;;;;;;5036560;28;20041;-69
2022/09/16 12:09:53;;;;;;;3.30;0.40;;;15.60;94.40;;;;;;5034611;28;20406;-71
2022/09/16 12:12:28;;;;;;;0.00;0.00;;;15.50;94.50;;;;;;5033100;28;20111;-71
2022/09/16 12:15:14;;;;;;;3.97;0.23;;;15.20;94.50;;;;;;5037900;28;20490;-70
2022/09/16 12:18:08;;;;;;;0.77;0.13;;;14.90;95.40;;;;;;5040045;28;20462;-70
2022/09/16 12:20:40;;;;;;;2.83;0.20;;;14.70;96.80;;;;;;5036291;28;20029;-70
2022/09/16 12:23:21;;;;;;;1.52;0.40;;;14.60;97.80;;;;;;5002464;28;20707;-70
2022/09/16 12:25:59;;;;;;;1.30;0.45;;;14.60;97.50;;;;;;5039102;28;20033;-70
2022/09/16 12:28:42;;;;;;;2.17;0.20;;;14.70;97.10;;;;;;5034117;28;20035;-69
2022/09/16 12:31:32;;;;;;;0.55;0.10;;;14.80;95.20;;;;;;5037295;28;20971;-69
2022/09/16 12:34:16;;;;;;;0.20;0.08;;;14.90;93.50;;;;;;5036635;28;20037;-70
2022/09/16 12:36:48;;;;;;;1.15;0.30;;;15.00;94.90;;;;;;5018832;28;20051;-71
2022/09/16 12:39:14;;;;;;;1.35;0.22;;;15.10;95.50;;;;;;5016723;28;20060;-71
2022/09/16 12:42:01;;;;;;;3.97;0.55;;;15.20;95.10;;;;;;5035370;28;21192;-69
2022/09/16 12:44:42;;;;;;;1.88;0.40;;;15.30;93.50;;;;;;5019124;28;20493;-71
2022/09/16 12:47:38;;;;;;;1.83;0.40;;;15.40;92.60;;;;;;5032666;28;20128;-71
2022/09/16 12:50:24;;;;;;;1.00;0.35;;;15.40;91.10;;;;;;5035225;28;20110;-71
2022/09/16 12:53:05;;;;;;;1.38;0.40;;;15.50;91.70;;;;;;5042187;28;20087;-71
2022/09/16 12:55:58;;;;;;;2.00;0.50;;;15.30;93.40;;;;;;5038027;28;20130;-71
2022/09/16 12:58:38;;;;;;;2.30;0.20;;;15.00;93.10;;;;;;5038819;28;20051;-71
2022/09/16 13:01:14;;;;;;;3.55;0.35;;;14.90;94.30;;;;;;5038303;28;20037;-71
2022/09/16 13:03:44;;;;;;;3.83;0.85;;;14.90;94.50;;;;;;5038485;28;20445;-71
2022/09/16 13:06:29;;;;;;;9.88;0.75;;;15.00;94.50;;;;;;5038664;28;20041;-71
2022/09/16 13:08:56;;;;;;;1.98;0.22;;;15.00;94.00;;;;;;5019020;28;20041;-71
2022/09/16 13:11:25;;;;;;;1.20;0.52;;;15.00;94.30;;;;;;5038341;28;20114;-71
2022/09/16 13:14:00;;;;;;;1.13;0.28;;;15.10;94.00;;;;;;5011396;28;20437;-71
2022/09/16 13:16:35;;;;;;;2.83;0.43;;;15.10;92.70;;;;;;5039367;28;20137;-71
2022/09/16 13:19:35;;;;;;;0.38;0.30;;;15.20;91.80;;;;;;5022473;28;20044;-71